createdAt,value
2019-02-06T00:01:23.173Z,32.98
2019-02-06T00:03:55.097Z,34.67
2019-02-06T00:06:27.022Z,34.10
2019-02-06T00:09:09.019Z,35.03
2019-02-06T00:11:40.944Z,32.42
2019-02-06T00:14:12.915Z,31.97
2019-02-06T00:16:45.038Z,31.15
2019-02-06T00:19:21.546Z,30.62
2019-02-06T00:21:53.419Z,30.30
2019-02-06T00:24:25.373Z,31.55
2019-02-06T00:26:57.258Z,30.32
2019-02-06T00:29:29.284Z,30.05
2019-02-06T00:32:01.453Z,31.00
2019-02-06T00:34:33.426Z,30.02
2019-02-06T00:37:05.422Z,27.85
2019-02-06T00:39:37.360Z,29.20
2019-02-06T00:42:09.396Z,30.57
2019-02-06T00:44:41.478Z,29.32
2019-02-06T00:47:13.466Z,25.27
2019-02-06T00:49:45.349Z,28.25
2019-02-06T00:52:17.334Z,29.27
2019-02-06T00:54:49.251Z,29.80
2019-02-06T00:57:21.179Z,29.10
2019-02-06T00:59:53.106Z,30.62
2019-02-06T01:02:24.986Z,29.45
2019-02-06T01:04:56.915Z,29.00
2019-02-06T01:07:28.808Z,29.70
2019-02-06T01:10:00.802Z,31.20
2019-02-06T01:12:32.791Z,31.10
2019-02-06T01:15:05.019Z,29.82
2019-02-06T01:17:36.919Z,28.47
2019-02-06T01:20:10.661Z,27.98
2019-02-06T01:22:42.603Z,27.45
2019-02-06T01:25:15.882Z,26.17
2019-02-06T01:27:47.786Z,26.82
2019-02-06T01:30:23.255Z,26.85
2019-02-06T01:32:55.123Z,25.88
2019-02-06T01:35:27.072Z,27.25
2019-02-06T01:37:58.974Z,28.20
2019-02-06T01:40:30.919Z,26.75
2019-02-06T01:43:02.796Z,25.80
2019-02-06T01:45:34.813Z,25.60
2019-02-06T01:48:06.787Z,25.40
2019-02-06T01:50:43.708Z,26.02
2019-02-06T01:53:15.618Z,26.07
2019-02-06T01:55:47.597Z,26.97
2019-02-06T01:58:19.868Z,25.50
2019-02-06T02:00:51.843Z,25.85
2019-02-06T02:03:23.805Z,25.10
2019-02-06T02:06:02.514Z,28.55
2019-02-06T02:08:30.379Z,27.05
2019-02-06T02:11:02.672Z,25.75
2019-02-06T02:13:34.618Z,25.25
2019-02-06T02:16:06.945Z,27.02
2019-02-06T02:18:39.879Z,26.12
2019-02-06T02:21:17.734Z,26.62
2019-02-06T02:23:49.660Z,25.82
2019-02-06T02:26:21.586Z,25.57
2019-02-06T02:28:53.509Z,26.23
2019-02-06T02:31:25.573Z,27.48
2019-02-06T02:33:57.500Z,25.37
2019-02-06T02:36:29.317Z,27.90
2019-02-06T02:39:01.211Z,25.60
2019-02-06T02:41:34.405Z,27.52
2019-02-06T02:44:06.654Z,25.45
2019-02-06T03:04:04.850Z,24.92
2019-02-06T03:06:53.222Z,25.90
2019-02-06T03:10:13.189Z,25.25
2019-02-06T03:13:47.663Z,26.87
2019-02-06T03:18:52.402Z,25.05
2019-02-06T03:21:08.042Z,26.42
2019-02-06T03:24:55.607Z,24.65
2019-02-06T03:32:22.600Z,24.65
2019-02-06T03:46:11.979Z,26.40
2019-02-06T03:49:34.850Z,27.13
2019-02-06T03:52:52.609Z,26.40
2019-02-06T04:11:28.012Z,24.67
2019-02-06T04:14:20.216Z,25.50
2019-02-06T04:17:55.185Z,25.52
2019-02-06T04:20:37.072Z,27.15
2019-02-06T04:27:11.432Z,24.63
2019-02-06T04:29:43.529Z,25.60
2019-02-06T04:32:15.697Z,24.82
2019-02-06T04:34:57.698Z,27.67
2019-02-06T04:37:36.551Z,24.55
2019-02-06T04:40:20.785Z,26.60
2019-02-06T04:42:53.124Z,26.60
2019-02-06T04:45:26.561Z,26.82
2019-02-06T04:48:00.884Z,27.58
2019-02-06T04:50:35.825Z,25.12
2019-02-06T04:53:15.620Z,25.20
2019-02-06T04:55:48.836Z,25.75
2019-02-06T04:58:23.880Z,25.32
2019-02-06T05:01:06.652Z,25.88
2019-02-06T05:03:50.130Z,24.98
2019-02-06T05:06:29.660Z,24.20
2019-02-06T05:13:06.239Z,23.62
2019-02-06T05:15:41.751Z,24.40
2019-02-06T05:18:15.452Z,24.23
2019-02-06T05:20:47.741Z,24.47
2019-02-06T05:23:22.857Z,25.92
2019-02-06T05:25:55.069Z,24.87
2019-02-06T05:28:27.038Z,25.50
2019-02-06T05:30:58.988Z,24.43
2019-02-06T05:33:31.391Z,23.92
2019-02-06T05:36:03.264Z,23.92
2019-02-06T05:38:35.172Z,24.27
2019-02-06T05:41:07.100Z,24.20
2019-02-06T05:43:39.017Z,24.02
2019-02-06T05:46:10.994Z,24.50
2019-02-06T05:48:43.174Z,25.15
2019-02-06T05:51:18.582Z,24.87
2019-02-06T05:53:50.511Z,24.35
2019-02-06T05:56:22.520Z,23.62
2019-02-06T05:58:54.440Z,23.77
2019-02-06T06:01:26.474Z,24.23
2019-02-06T06:32:31.935Z,20.00
2019-02-06T06:35:19.650Z,22.58
2019-02-06T06:37:59.401Z,23.15
2019-02-06T06:40:25.206Z,22.73
2019-02-06T06:42:57.092Z,23.22
2019-02-06T06:45:29.008Z,24.35
2019-02-06T06:48:00.928Z,23.25
2019-02-06T06:50:32.819Z,24.65
2019-02-06T06:53:04.731Z,22.58
2019-02-06T06:55:36.664Z,22.13
2019-02-06T06:58:08.580Z,24.45
2019-02-06T07:00:40.479Z,20.57
2019-02-06T07:03:12.401Z,22.90
2019-02-06T07:05:44.310Z,22.35
2019-02-06T07:08:16.216Z,21.30
2019-02-06T07:10:48.133Z,24.72
2019-02-06T07:13:20.011Z,23.73
2019-02-06T07:15:51.955Z,21.82
2019-02-06T07:18:23.864Z,22.95
2019-02-06T07:20:55.841Z,22.93
2019-02-06T07:23:27.753Z,25.88
2019-02-06T07:25:59.756Z,23.95
2019-02-06T07:28:31.678Z,23.50
2019-02-06T07:31:03.589Z,24.65
2019-02-06T07:33:35.462Z,23.22
2019-02-06T07:36:07.373Z,24.18
2019-02-06T07:38:39.271Z,23.47
2019-02-06T07:41:11.186Z,24.45
2019-02-06T07:43:43.135Z,26.77
2019-02-06T07:46:15.066Z,25.65
2019-02-06T07:48:46.961Z,26.87
2019-02-06T07:51:18.889Z,25.68
2019-02-06T07:53:50.822Z,23.45
2019-02-06T07:56:22.743Z,24.92
2019-02-06T07:58:54.633Z,24.72
2019-02-06T08:01:26.553Z,25.02
2019-02-06T08:03:58.518Z,29.35
2019-02-06T08:06:30.510Z,28.85
2019-02-06T08:09:05.994Z,26.00
2019-02-06T08:11:37.925Z,26.48
2019-02-06T08:14:09.979Z,26.95
2019-02-06T08:16:41.914Z,27.87
2019-02-06T08:19:13.790Z,25.17
2019-02-06T08:21:46.114Z,36.23
2019-02-06T08:24:18.046Z,30.08
2019-02-06T08:26:49.959Z,30.43
2019-02-06T08:29:21.842Z,28.70
2019-02-06T08:31:53.771Z,29.77
2019-02-06T08:34:26.035Z,25.90
2019-02-06T08:36:57.966Z,27.90
2019-02-06T08:39:29.991Z,26.35
2019-02-06T08:42:01.854Z,27.82
2019-02-06T08:44:33.763Z,27.00
2019-02-06T08:47:05.812Z,26.23
2019-02-06T08:49:37.771Z,27.40
2019-02-06T08:52:09.662Z,26.20
2019-02-06T08:54:41.685Z,27.35
2019-02-06T08:57:13.572Z,26.52
2019-02-06T08:59:45.873Z,27.85
2019-02-06T09:02:17.785Z,27.75
2019-02-06T09:04:55.987Z,26.73
2019-02-06T09:07:23.350Z,25.17
2019-02-06T09:09:55.286Z,28.00
2019-02-06T09:12:27.529Z,29.67
2019-02-06T09:14:59.477Z,28.07
2019-02-06T09:17:32.402Z,27.52
2019-02-06T09:20:04.648Z,28.50
2019-02-06T09:22:36.591Z,27.48
2019-02-06T09:25:09.396Z,28.80
2019-02-06T09:27:41.313Z,27.05
2019-02-06T09:30:16.540Z,26.70
2019-02-06T09:32:48.454Z,26.40
2019-02-06T09:35:20.320Z,27.95
2019-02-06T09:37:52.278Z,27.65
2019-02-06T09:40:27.128Z,25.77
2019-02-06T09:42:59.170Z,25.65
2019-02-06T09:45:31.063Z,27.30
2019-02-06T09:48:02.964Z,27.25
2019-02-06T09:50:37.701Z,29.60
2019-02-06T09:53:09.606Z,28.95
2019-02-06T09:55:41.473Z,29.15
2019-02-06T09:58:13.383Z,30.25
2019-02-06T10:00:45.754Z,28.35
2019-02-06T10:03:17.666Z,30.10
2019-02-06T10:05:49.576Z,28.50
2019-02-06T10:08:21.551Z,37.58
2019-02-06T10:10:53.436Z,33.63
2019-02-06T10:13:25.586Z,28.83
2019-02-06T10:15:57.516Z,31.37
2019-02-06T10:18:29.382Z,31.55
2019-02-06T10:21:01.296Z,32.98
2019-02-06T10:23:33.168Z,32.48
2019-02-06T10:26:05.456Z,31.85
2019-02-06T10:28:37.322Z,32.90
2019-02-06T10:31:09.265Z,31.23
2019-02-06T10:33:41.143Z,34.58
2019-02-06T10:36:13.044Z,31.37
2019-02-06T10:38:45.199Z,33.13
2019-02-06T10:41:17.118Z,33.02
2019-02-06T10:43:49.000Z,36.20
2019-02-06T10:46:20.942Z,35.48
2019-02-06T10:48:52.773Z,33.40
2019-02-06T10:51:24.957Z,33.30
2019-02-06T10:53:56.839Z,32.23
2019-02-06T10:56:28.769Z,29.63
2019-02-06T10:59:00.649Z,33.03
2019-02-06T11:01:32.565Z,30.47
2019-02-06T11:04:05.032Z,32.67
2019-02-06T11:06:36.963Z,38.70
2019-02-06T11:09:09.518Z,33.10
2019-02-06T11:11:41.431Z,32.67
2019-02-06T11:14:13.472Z,34.87
2019-02-06T11:16:45.570Z,33.50
2019-02-06T11:19:17.475Z,31.97
2019-02-06T11:21:49.411Z,36.43
2019-02-06T11:24:21.296Z,34.07
2019-02-06T11:26:53.220Z,34.83
2019-02-06T11:29:25.439Z,34.27
2019-02-06T11:31:58.620Z,34.53
2019-02-06T11:34:30.498Z,35.50
2019-02-06T11:37:02.596Z,33.10
2019-02-06T11:39:34.487Z,35.10
2019-02-06T11:42:06.586Z,34.60
2019-02-06T11:44:38.540Z,34.07
2019-02-06T11:47:10.456Z,36.17
2019-02-06T11:49:44.038Z,34.43
2019-02-06T11:52:15.982Z,35.20
2019-02-06T11:54:47.889Z,34.03
2019-02-06T11:57:19.719Z,35.17
2019-02-06T11:59:53.124Z,35.20
2019-02-06T12:02:36.745Z,36.97
2019-02-06T12:04:59.583Z,35.60
2019-02-06T12:07:31.508Z,34.57
2019-02-06T12:10:10.064Z,36.93
2019-02-06T12:12:37.081Z,33.57
2019-02-06T12:15:14.740Z,33.33
2019-02-06T12:17:46.939Z,34.50
2019-02-06T12:20:24.431Z,41.67
2019-02-06T12:22:56.333Z,48.70
2019-02-06T12:25:28.267Z,37.60
2019-02-06T12:28:00.140Z,33.33
2019-02-06T12:30:33.505Z,34.13
2019-02-06T12:33:05.619Z,35.33
2019-02-06T12:35:37.547Z,34.90
2019-02-06T12:38:09.437Z,35.50
2019-02-06T12:40:41.407Z,34.77
2019-02-06T12:43:13.297Z,33.90
2019-02-06T12:45:45.401Z,33.10
2019-02-06T12:48:17.274Z,39.23
2019-02-06T12:50:49.257Z,36.40
2019-02-06T12:53:21.143Z,32.37
2019-02-06T12:55:53.048Z,35.40
2019-02-06T12:58:26.150Z,35.40
2019-02-06T13:00:58.267Z,34.47
2019-02-06T13:03:30.185Z,34.50
2019-02-06T13:06:02.061Z,34.50
2019-02-06T13:08:33.994Z,36.63
2019-02-06T13:11:06.009Z,35.50
2019-02-06T13:13:37.939Z,34.47
2019-02-06T13:16:09.901Z,34.77
2019-02-06T13:18:41.801Z,37.20
2019-02-06T13:21:13.745Z,35.93
2019-02-06T13:23:45.618Z,37.27
2019-02-06T13:26:17.539Z,37.47
2019-02-06T13:28:49.483Z,37.23
2019-02-06T13:31:21.370Z,36.40
2019-02-06T13:33:53.318Z,36.87
2019-02-06T13:36:25.206Z,50.80
2019-02-06T13:38:57.191Z,47.07
2019-02-06T13:41:29.098Z,41.13
2019-02-06T13:44:01.065Z,44.60
2019-02-06T13:46:32.961Z,53.37
2019-02-06T13:49:04.971Z,42.27
2019-02-06T13:51:37.547Z,40.47
2019-02-06T13:54:09.487Z,43.60
2019-02-06T13:56:41.593Z,42.57
2019-02-06T13:59:13.474Z,43.27
2019-02-06T14:01:45.394Z,46.53
2019-02-06T14:04:19.170Z,37.00
2019-02-06T14:06:51.127Z,42.13
2019-02-06T14:09:26.663Z,38.60
2019-02-06T14:11:56.634Z,43.40
2019-02-06T14:14:32.035Z,46.37
2019-02-06T14:17:03.966Z,42.23
2019-02-06T14:19:35.850Z,40.10
2019-02-06T14:22:09.831Z,35.80
2019-02-06T14:25:22.548Z,37.77
2019-02-06T14:28:24.855Z,36.37
2019-02-06T14:31:46.893Z,35.10
2019-02-06T14:35:25.298Z,33.97
2019-02-06T14:38:55.215Z,34.00
2019-02-06T14:41:54.514Z,35.70
2019-02-06T14:44:57.923Z,34.70
2019-02-06T14:48:13.905Z,50.17
2019-02-06T14:52:15.108Z,38.77
2019-02-06T14:55:02.209Z,33.30
2019-02-06T14:58:06.916Z,36.80
2019-02-06T15:01:22.896Z,38.23
2019-02-06T15:04:41.017Z,42.80
2019-02-06T15:08:03.757Z,44.40
2019-02-06T15:11:32.283Z,45.13
2019-02-06T15:15:06.951Z,42.23
2019-02-06T15:18:27.003Z,43.05
2019-02-06T15:21:31.353Z,40.12
2019-02-06T15:25:32.911Z,43.87
2019-02-06T15:28:53.476Z,40.30
2019-02-06T15:32:39.881Z,40.28
2019-02-06T15:36:01.675Z,43.25
2019-02-06T15:39:46.579Z,40.60
2019-02-06T15:43:15.844Z,39.75
2019-02-06T15:46:55.958Z,39.10
2019-02-06T15:50:13.283Z,41.33
2019-02-06T15:53:09.035Z,39.40
2019-02-06T15:56:29.119Z,38.98
2019-02-06T16:00:39.306Z,39.58
2019-02-06T16:04:34.214Z,40.35
2019-02-06T16:08:24.185Z,40.05
2019-02-06T16:11:42.395Z,39.67
2019-02-06T16:14:45.344Z,39.53
2019-02-06T16:18:07.914Z,38.73
2019-02-06T16:21:31.930Z,38.35
2019-02-06T16:24:50.481Z,38.70
2019-02-06T16:28:16.031Z,38.88
2019-02-06T16:31:35.092Z,39.63
2019-02-06T16:35:21.813Z,42.45
2019-02-06T16:38:42.406Z,42.40
2019-02-06T16:41:56.713Z,39.75
2019-02-06T16:45:06.087Z,40.98
2019-02-06T16:48:38.385Z,37.30
2019-02-06T16:51:29.688Z,38.60
2019-02-06T16:54:57.650Z,34.83
2019-02-06T16:58:24.522Z,32.63
2019-02-06T17:02:08.795Z,34.40
2019-02-06T17:05:12.796Z,34.03
2019-02-06T17:09:01.435Z,42.13
2019-02-06T17:12:34.225Z,40.33
2019-02-06T17:15:48.766Z,48.90
2019-02-06T17:19:07.068Z,37.93
2019-02-06T17:22:34.926Z,40.00
2019-02-06T17:26:09.945Z,36.00
2019-02-06T17:30:05.867Z,34.33
2019-02-06T17:33:22.170Z,34.67
2019-02-06T17:37:15.313Z,37.00
2019-02-06T17:40:47.630Z,41.10
2019-02-06T17:44:24.158Z,33.30
2019-02-06T17:47:37.486Z,32.98
2019-02-06T17:50:48.104Z,33.10
2019-02-06T17:53:44.192Z,37.67
2019-02-06T17:56:16.159Z,32.08
2019-02-06T17:58:48.315Z,36.73
2019-02-06T18:01:55.208Z,30.92
2019-02-06T18:04:39.041Z,34.73
2019-02-06T18:07:11.713Z,36.00
2019-02-06T18:09:43.903Z,35.00
2019-02-06T18:12:25.962Z,33.20
2019-02-06T18:14:50.019Z,33.92
2019-02-06T18:17:22.490Z,32.65
2019-02-06T18:19:55.546Z,33.80
2019-02-06T18:22:27.783Z,34.23
2019-02-06T18:24:59.812Z,37.45
2019-02-06T18:27:31.846Z,38.08
2019-02-06T18:30:05.749Z,39.13
2019-02-06T18:32:38.034Z,37.48
2019-02-06T18:35:10.577Z,37.50
2019-02-06T18:37:43.378Z,41.30
2019-02-06T18:40:15.911Z,42.13
2019-02-06T18:42:48.398Z,41.73
2019-02-06T18:45:20.753Z,41.80
2019-02-06T18:47:57.278Z,39.88
2019-02-06T18:50:31.108Z,35.38
2019-02-06T18:53:03.520Z,35.58
2019-02-06T18:55:35.892Z,33.80
2019-02-06T18:58:08.971Z,37.23
2019-02-06T19:00:41.054Z,34.55
2019-02-06T19:03:21.533Z,40.90
2019-02-06T19:05:53.516Z,35.60
2019-02-06T19:08:25.432Z,38.50
2019-02-06T19:10:57.497Z,35.13
2019-02-06T19:13:29.399Z,35.40
2019-02-06T19:16:01.571Z,35.28
2019-02-06T19:18:33.493Z,32.60
2019-02-06T19:21:05.478Z,38.50
2019-02-06T19:23:37.891Z,46.80
2019-02-06T19:26:10.639Z,49.60
2019-02-06T19:28:42.548Z,38.85
2019-02-06T19:31:16.034Z,45.05
2019-02-06T19:33:48.879Z,50.38
2019-02-06T19:36:20.836Z,42.78
2019-02-06T19:38:52.747Z,42.95
2019-02-06T19:41:24.719Z,56.08
2019-02-06T19:43:56.791Z,35.92
2019-02-06T19:46:29.101Z,34.63
2019-02-06T19:49:01.898Z,32.33
2019-02-06T19:51:34.125Z,31.30
2019-02-06T19:54:06.126Z,32.63
2019-02-06T19:56:38.169Z,32.85
2019-02-06T19:59:10.093Z,30.37
2019-02-06T20:01:42.028Z,31.50
2019-02-06T20:04:13.908Z,31.00
2019-02-06T20:06:45.888Z,35.13
2019-02-06T20:09:17.804Z,32.33
2019-02-06T20:11:49.731Z,31.77
2019-02-06T20:14:21.659Z,32.78
2019-02-06T20:16:53.616Z,34.50
2019-02-06T20:19:25.806Z,34.90
2019-02-06T20:21:57.820Z,33.70
2019-02-06T20:24:29.744Z,34.98
2019-02-06T20:27:01.871Z,37.17
2019-02-06T20:29:33.784Z,35.52
2019-02-06T20:32:06.310Z,39.80
2019-02-06T20:34:38.263Z,39.10
2019-02-06T20:37:10.216Z,43.63
2019-02-06T20:39:42.274Z,37.70
2019-02-06T20:42:14.175Z,39.25
2019-02-06T20:44:46.169Z,37.63
2019-02-06T20:47:18.297Z,35.43
2019-02-06T20:49:50.285Z,36.33
2019-02-06T20:52:23.671Z,38.85
2019-02-06T20:54:55.727Z,33.95
2019-02-06T20:57:27.637Z,37.90
2019-02-06T21:00:00.007Z,36.00
2019-02-06T21:02:31.971Z,45.28
2019-02-06T21:05:04.287Z,37.63
2019-02-06T21:07:36.200Z,34.40
2019-02-06T21:10:13.751Z,38.20
2019-02-06T21:12:45.677Z,35.50
2019-02-06T21:15:17.613Z,46.33
2019-02-06T21:17:49.636Z,40.23
2019-02-06T21:20:23.677Z,38.17
2019-02-06T21:22:55.798Z,34.35
2019-02-06T21:25:27.711Z,34.60
2019-02-06T21:28:00.042Z,33.73
2019-02-06T21:30:34.742Z,34.40
2019-02-06T21:33:06.856Z,34.92
2019-02-06T21:35:38.787Z,34.40
2019-02-06T21:38:10.725Z,33.85
2019-02-06T21:40:42.636Z,34.25
2019-02-06T21:43:14.632Z,29.85
2019-02-06T21:45:52.554Z,30.77
2019-02-06T21:48:24.988Z,28.30
2019-02-06T21:50:57.147Z,31.27
2019-02-06T21:53:29.101Z,31.77
2019-02-06T21:56:00.994Z,31.97
2019-02-06T21:58:33.028Z,29.92
2019-02-06T22:01:05.019Z,28.92
2019-02-06T22:03:36.951Z,27.35
2019-02-06T22:06:08.926Z,28.65
2019-02-06T22:08:40.922Z,29.85
2019-02-06T22:11:12.837Z,31.65
2019-02-06T22:13:54.696Z,35.40
2019-02-06T22:16:18.636Z,32.88
2019-02-06T22:18:50.672Z,35.10
2019-02-06T22:21:22.596Z,34.38
2019-02-06T22:23:54.988Z,32.73
2019-02-06T22:26:26.943Z,33.50
2019-02-06T22:28:58.882Z,31.97
2019-02-06T22:31:30.885Z,32.95
2019-02-06T22:34:02.882Z,32.00
2019-02-06T22:36:35.186Z,30.17
2019-02-06T22:39:12.124Z,28.87
2019-02-06T22:41:44.041Z,27.58
2019-02-06T22:44:15.958Z,28.85
2019-02-06T22:46:47.854Z,31.00
2019-02-06T22:49:19.775Z,34.15
2019-02-06T22:51:51.667Z,33.63
2019-02-06T22:54:23.602Z,32.48
2019-02-06T22:56:55.609Z,32.10
2019-02-06T22:59:27.402Z,34.15
2019-02-06T23:02:00.334Z,34.27
2019-02-06T23:04:32.259Z,33.45
2019-02-06T23:07:04.190Z,31.57
2019-02-06T23:09:37.804Z,32.17
2019-02-06T23:12:10.070Z,35.75
2019-02-06T23:14:42.067Z,34.65
2019-02-06T23:17:14.130Z,34.20
2019-02-06T23:19:46.056Z,34.60
